createdAt,value
2017-08-02T00:09:26.697Z,1010.4
2017-08-02T00:19:41.449Z,1010.3
2017-08-02T00:29:56.270Z,1010.3
2017-08-02T00:40:10.219Z,1010.2
2017-08-02T00:50:24.039Z,1010.1
2017-08-02T01:00:38.101Z,1009.9
2017-08-02T01:10:52.686Z,1009.9
2017-08-02T01:21:06.917Z,1010
2017-08-02T01:31:21.533Z,1010.1
2017-08-02T01:41:36.207Z,1010
2017-08-02T01:51:51.546Z,1010
2017-08-02T02:02:06.763Z,1010.1
2017-08-02T02:12:20.834Z,1010.2
2017-08-02T02:22:35.838Z,1010.1
2017-08-02T02:32:50.312Z,1009.9
2017-08-02T02:43:04.282Z,1009.9
2017-08-02T02:53:19.866Z,1009.9
2017-08-02T03:03:34.832Z,1010
2017-08-02T03:13:49.979Z,1010.1
2017-08-02T03:24:04.838Z,1010
2017-08-02T03:34:19.638Z,1009.9
2017-08-02T03:44:35.242Z,1009.9
2017-08-02T03:54:49.330Z,1009.9
2017-08-02T04:05:04.110Z,1009.9
2017-08-02T04:15:19.816Z,1009.9
2017-08-02T04:25:34.436Z,1010
2017-08-02T04:35:50.036Z,1010.2
2017-08-02T04:46:04.534Z,1010.1
2017-08-02T04:56:20.176Z,1009.9
2017-08-02T05:06:35.046Z,1010.1
2017-08-02T05:16:50.949Z,1010
2017-08-02T05:27:06.256Z,1010.1
2017-08-02T05:37:20.251Z,1010.3
2017-08-02T05:47:34.704Z,1010.4
2017-08-02T05:57:49.392Z,1010.5
2017-08-02T06:08:04.843Z,1010.6
2017-08-02T06:18:20.360Z,1010.7
2017-08-02T06:28:34.255Z,1010.6
2017-08-02T06:38:48.398Z,1010.6
2017-08-02T06:49:02.410Z,1010.6
2017-08-02T06:59:16.701Z,1010.6
2017-08-02T07:09:30.537Z,1010.7
2017-08-02T07:19:45.236Z,1010.5
2017-08-02T07:30:00.935Z,1010.4
2017-08-02T07:40:15.856Z,1010.8
2017-08-02T07:50:30.798Z,1010.7
2017-08-02T08:00:46.214Z,1010.7
2017-08-02T08:21:15.869Z,1010.7
2017-08-02T08:31:30.643Z,1010.5
2017-08-02T08:41:44.847Z,1010.8
2017-08-02T08:51:59.270Z,1010.6
2017-08-02T09:02:13.301Z,1010.9
2017-08-02T09:12:29.176Z,1011.4
2017-08-02T09:22:44.836Z,1011.1
2017-08-02T09:32:59.866Z,1011
2017-08-02T09:43:13.924Z,1010.8
2017-08-02T09:53:28.011Z,1011.4
2017-08-02T10:03:43.331Z,1011.5
2017-08-02T10:13:59.232Z,1011.6
2017-08-02T10:24:14.676Z,1011.6
2017-08-02T10:34:29.005Z,1011.7
2017-08-02T10:44:43.945Z,1011.8
2017-08-02T10:54:58.732Z,1011.8
2017-08-02T11:05:14.510Z,1012.1
2017-08-02T11:15:28.948Z,1011.6
2017-08-02T11:25:44.757Z,1011.9
2017-08-02T11:35:59.982Z,1012
2017-08-02T11:46:15.666Z,1011.5
2017-08-02T11:56:31.249Z,1011.6
2017-08-02T12:06:45.717Z,1011.8
2017-08-02T12:17:01.321Z,1011.5
2017-08-02T12:27:17.140Z,1011.5
2017-08-02T12:37:32.258Z,1011.2
2017-08-02T12:47:46.335Z,1011.5
2017-08-02T12:58:02.006Z,1011.1
2017-08-02T13:08:17.847Z,1012
2017-08-02T13:18:32.098Z,1011
2017-08-02T13:28:46.986Z,1011.3
2017-08-02T13:39:01.290Z,1011.2
2017-08-02T13:49:16.088Z,1010.6
2017-08-02T13:59:31.977Z,1010.8
2017-08-02T14:09:47.871Z,1010.4
2017-08-02T14:20:03.089Z,1010.4
2017-08-02T14:30:17.898Z,1010.6
2017-08-02T14:40:32.610Z,1010.2
2017-08-02T14:50:46.595Z,1010.1
2017-08-02T15:01:02.165Z,1009.8
2017-08-02T15:11:16.888Z,1009.9
2017-08-02T15:21:31.388Z,1009.8
2017-08-02T15:31:47.189Z,1009.6
2017-08-02T15:42:02.357Z,1009.4
2017-08-02T15:52:17.639Z,1009.2
2017-08-02T16:02:31.602Z,1009.1
2017-08-02T16:12:46.835Z,1009.2
2017-08-02T16:23:01.946Z,1009.2
2017-08-02T16:33:16.150Z,1009.2
2017-08-02T16:43:31.759Z,1009.3
2017-08-02T16:53:46.454Z,1009.4
2017-08-02T17:04:01.408Z,1009.4
2017-08-02T17:14:16.832Z,1009.4
2017-08-02T17:24:31.060Z,1009.4
2017-08-02T17:34:45.993Z,1009.4
2017-08-02T17:45:00.799Z,1009.2
2017-08-02T17:55:15.621Z,1009
2017-08-02T18:05:29.439Z,1009.1
2017-08-02T18:15:44.036Z,1009.2
2017-08-02T18:25:58.753Z,1009
2017-08-02T18:36:14.488Z,1009
2017-08-02T18:46:28.844Z,1009
2017-08-02T18:56:44.132Z,1009
2017-08-02T19:06:59.842Z,1008.9
2017-08-02T19:17:15.212Z,1009
2017-08-02T19:27:29.046Z,1009
2017-08-02T19:37:43.815Z,1009.1
2017-08-02T19:47:57.688Z,1009
2017-08-02T19:58:12.754Z,1008.9
2017-08-02T20:08:28.393Z,1009.1
2017-08-02T20:18:43.023Z,1009.1
2017-08-02T20:28:58.170Z,1008.9
2017-08-02T20:39:13.214Z,1008.9
2017-08-02T20:49:28.362Z,1009.1
2017-08-02T20:59:43.945Z,1009
2017-08-02T21:09:58.234Z,1008.7
2017-08-02T21:20:12.707Z,1008.8
2017-08-02T21:30:27.828Z,1009
2017-08-02T21:40:41.879Z,1008.9
2017-08-02T21:50:55.718Z,1008.9
2017-08-02T22:01:11.465Z,1009
2017-08-02T22:11:25.817Z,1008.7
2017-08-02T22:21:41.203Z,1008.4
2017-08-02T22:31:55.833Z,1008.1
2017-08-02T22:42:10.704Z,1008
2017-08-02T22:52:25.953Z,1007.6
2017-08-02T23:02:40.417Z,1007.6
2017-08-02T23:12:54.882Z,1007.6
2017-08-02T23:23:10.131Z,1007.8
2017-08-02T23:33:24.215Z,1007.7
2017-08-02T23:43:39.863Z,1007.6
2017-08-02T23:53:53.685Z,1007.3
